createdAt,value
2023-06-23T00:00:38.856Z,430.00
2023-06-23T00:01:38.954Z,428.00
2023-06-23T00:02:38.954Z,427.00
2023-06-23T00:03:38.971Z,427.00
2023-06-23T00:04:38.967Z,427.00
2023-06-23T00:05:39.021Z,429.00
2023-06-23T00:06:39.069Z,426.00
2023-06-23T00:07:39.076Z,429.00
2023-06-23T00:08:39.062Z,425.00
2023-06-23T00:09:39.106Z,424.00
2023-06-23T00:10:39.112Z,425.00
2023-06-23T00:11:39.124Z,427.00
2023-06-23T00:12:39.126Z,427.00
2023-06-23T00:13:39.136Z,427.00
2023-06-23T00:14:39.136Z,428.00
2023-06-23T00:15:39.148Z,428.00
2023-06-23T00:16:39.152Z,428.00
2023-06-23T00:17:39.144Z,428.00
2023-06-23T00:18:39.139Z,429.00
2023-06-23T00:19:39.162Z,428.00
2023-06-23T00:20:39.176Z,428.00
2023-06-23T00:21:39.187Z,430.00
2023-06-23T00:22:39.180Z,428.00
2023-06-23T00:23:39.198Z,427.00
2023-06-23T00:24:39.224Z,427.00
2023-06-23T00:25:39.241Z,430.00
2023-06-23T00:26:39.274Z,428.00
2023-06-23T00:27:39.294Z,429.00
2023-06-23T00:28:39.312Z,428.00
2023-06-23T00:29:39.338Z,430.00
2023-06-23T00:30:39.369Z,428.00
2023-06-23T00:31:39.436Z,431.00
2023-06-23T00:32:39.394Z,429.00
2023-06-23T00:33:39.348Z,427.00
2023-06-23T00:34:39.378Z,423.00
2023-06-23T00:35:39.373Z,423.00
2023-06-23T00:36:39.362Z,421.00
2023-06-23T00:37:39.387Z,423.00
2023-06-23T00:38:39.463Z,426.00
2023-06-23T00:39:39.359Z,426.00
2023-06-23T00:40:39.379Z,427.00
2023-06-23T00:41:39.421Z,426.00
2023-06-23T00:42:39.410Z,426.00
2023-06-23T00:43:39.414Z,426.00
2023-06-23T00:44:39.436Z,423.00
2023-06-23T00:45:39.457Z,421.00
2023-06-23T00:46:39.451Z,423.00
2023-06-23T00:47:39.494Z,427.00
2023-06-23T00:48:39.463Z,428.00
2023-06-23T00:49:39.529Z,430.00
2023-06-23T00:50:39.520Z,429.00
2023-06-23T00:51:39.513Z,428.00
2023-06-23T00:52:39.502Z,430.00
2023-06-23T00:53:39.513Z,430.00
2023-06-23T00:54:39.533Z,428.00
2023-06-23T00:55:39.521Z,427.00
2023-06-23T00:56:39.516Z,425.00
2023-06-23T00:57:39.539Z,427.00
2023-06-23T00:58:39.540Z,429.00
2023-06-23T00:59:39.489Z,431.00
2023-06-23T01:00:39.505Z,432.00
2023-06-23T01:01:39.518Z,431.00
2023-06-23T01:02:39.633Z,430.00
2023-06-23T01:03:39.555Z,428.00
2023-06-23T01:04:39.635Z,431.00
2023-06-23T01:05:39.495Z,431.00
2023-06-23T01:06:39.530Z,429.00
2023-06-23T01:07:39.494Z,433.00
2023-06-23T01:08:39.527Z,433.00
2023-06-23T01:09:39.510Z,431.00
2023-06-23T01:10:39.518Z,430.00
2023-06-23T01:11:39.510Z,426.00
2023-06-23T01:12:39.535Z,428.00
2023-06-23T01:13:39.529Z,426.00
2023-06-23T01:14:39.543Z,426.00
2023-06-23T01:15:39.533Z,423.00
2023-06-23T01:16:39.569Z,420.00
2023-06-23T01:17:39.667Z,421.00
2023-06-23T01:18:39.585Z,422.00
2023-06-23T01:19:39.641Z,423.00
2023-06-23T01:20:39.636Z,423.00
2023-06-23T01:21:39.642Z,425.00
2023-06-23T01:22:39.697Z,425.00
2023-06-23T01:23:39.711Z,421.00
2023-06-23T01:24:39.716Z,422.00
2023-06-23T01:25:39.750Z,421.00
2023-06-23T01:26:39.732Z,423.00
2023-06-23T01:27:39.744Z,426.00
2023-06-23T01:28:39.760Z,421.00
2023-06-23T01:29:39.785Z,425.00
2023-06-23T01:30:39.826Z,425.00
2023-06-23T01:31:39.897Z,436.00
2023-06-23T01:32:39.887Z,438.00
2023-06-23T01:33:39.894Z,435.00
2023-06-23T01:34:39.931Z,434.00
2023-06-23T01:35:39.960Z,430.00
2023-06-23T01:36:40.003Z,430.00
2023-06-23T01:37:40.023Z,431.00
2023-06-23T01:38:40.051Z,432.00
2023-06-23T01:39:40.073Z,428.00
2023-06-23T01:40:40.086Z,427.00
2023-06-23T01:41:40.092Z,423.00
2023-06-23T01:42:40.143Z,426.00
2023-06-23T01:43:40.152Z,429.00
2023-06-23T01:44:40.183Z,431.00
2023-06-23T01:45:40.201Z,426.00
2023-06-23T01:46:40.323Z,425.00
2023-06-23T01:47:40.247Z,425.00
2023-06-23T01:48:40.242Z,425.00
2023-06-23T01:49:40.273Z,426.00
2023-06-23T01:50:40.282Z,425.00
2023-06-23T01:51:40.299Z,423.00
2023-06-23T01:52:40.348Z,423.00
2023-06-23T01:53:40.376Z,420.00
2023-06-23T01:54:40.399Z,424.00
2023-06-23T01:55:40.430Z,432.00
2023-06-23T01:56:40.488Z,424.00
2023-06-23T01:57:40.474Z,427.00
2023-06-23T01:58:40.521Z,426.00
2023-06-23T01:59:40.555Z,426.00
2023-06-23T02:00:40.620Z,426.00
2023-06-23T02:01:40.794Z,426.00
2023-06-23T02:02:40.729Z,422.00
2023-06-23T02:03:40.880Z,424.00
2023-06-23T02:04:40.696Z,427.00
2023-06-23T02:05:40.715Z,428.00
2023-06-23T02:06:40.800Z,427.00
2023-06-23T02:07:40.785Z,425.00
2023-06-23T02:08:40.796Z,427.00
2023-06-23T02:09:40.845Z,426.00
2023-06-23T02:10:40.883Z,427.00
2023-06-23T02:11:40.940Z,424.00
2023-06-23T02:12:40.948Z,423.00
2023-06-23T02:13:40.989Z,423.00
2023-06-23T02:14:41.044Z,423.00
2023-06-23T02:15:41.087Z,422.00
2023-06-23T02:16:41.113Z,423.00
2023-06-23T02:17:41.149Z,424.00
2023-06-23T02:18:41.174Z,425.00
2023-06-23T02:19:41.204Z,424.00
2023-06-23T02:20:41.250Z,423.00
2023-06-23T02:21:41.260Z,425.00
2023-06-23T02:22:41.310Z,423.00
2023-06-23T02:23:41.357Z,422.00
2023-06-23T02:24:41.372Z,423.00
2023-06-23T02:25:41.413Z,421.00
2023-06-23T02:26:41.434Z,422.00
2023-06-23T02:27:41.461Z,421.00
2023-06-23T02:28:41.492Z,421.00
2023-06-23T02:29:41.559Z,424.00
2023-06-23T02:30:41.603Z,424.00
2023-06-23T02:31:41.726Z,427.00
2023-06-23T02:32:41.790Z,432.00
2023-06-23T02:33:41.782Z,431.00
2023-06-23T02:34:41.824Z,429.00
2023-06-23T02:35:41.866Z,429.00
2023-06-23T02:36:41.930Z,427.00
2023-06-23T02:37:41.975Z,429.00
2023-06-23T02:38:42.031Z,427.00
2023-06-23T02:39:42.080Z,427.00
2023-06-23T02:40:42.138Z,426.00
2023-06-23T02:41:42.162Z,426.00
2023-06-23T02:42:42.228Z,426.00
2023-06-23T02:43:42.282Z,422.00
2023-06-23T02:44:42.320Z,422.00
2023-06-23T02:45:42.456Z,425.00
2023-06-23T02:46:42.436Z,425.00
2023-06-23T02:47:42.502Z,428.00
2023-06-23T02:48:42.563Z,428.00
2023-06-23T02:49:42.631Z,429.00
2023-06-23T02:50:42.681Z,429.00
2023-06-23T02:51:42.711Z,430.00
2023-06-23T02:52:42.739Z,430.00
2023-06-23T02:53:42.797Z,428.00
2023-06-23T02:54:42.839Z,428.00
2023-06-23T02:55:42.848Z,429.00
2023-06-23T02:56:42.893Z,428.00
2023-06-23T02:57:42.951Z,428.00
2023-06-23T02:58:42.965Z,431.00
2023-06-23T02:59:43.084Z,434.00
2023-06-23T03:00:43.055Z,435.00
2023-06-23T03:01:43.164Z,431.00
2023-06-23T03:02:43.267Z,432.00
2023-06-23T03:03:43.240Z,430.00
2023-06-23T03:04:43.298Z,431.00
2023-06-23T03:05:43.290Z,430.00
2023-06-23T03:06:43.335Z,427.00
2023-06-23T03:07:43.390Z,428.00
2023-06-23T03:08:43.411Z,430.00
2023-06-23T03:09:43.462Z,429.00
2023-06-23T03:10:43.514Z,429.00
2023-06-23T03:11:43.531Z,430.00
2023-06-23T03:12:43.587Z,430.00
2023-06-23T03:13:43.617Z,424.00
2023-06-23T03:14:43.690Z,422.00
2023-06-23T03:15:43.705Z,424.00
2023-06-23T03:16:43.778Z,425.00
2023-06-23T03:17:43.803Z,427.00
2023-06-23T03:18:43.861Z,427.00
2023-06-23T03:19:43.926Z,428.00
2023-06-23T03:20:43.940Z,428.00
2023-06-23T03:21:43.981Z,429.00
2023-06-23T03:22:44.030Z,430.00
2023-06-23T03:23:44.041Z,433.00
2023-06-23T03:24:44.070Z,434.00
2023-06-23T03:25:44.146Z,434.00
2023-06-23T03:26:44.201Z,434.00
2023-06-23T03:27:44.243Z,437.00
2023-06-23T03:28:44.348Z,434.00
2023-06-23T03:29:44.381Z,431.00
2023-06-23T03:30:44.534Z,431.00
2023-06-23T03:31:44.462Z,428.00
2023-06-23T03:32:44.561Z,433.00
2023-06-23T03:33:44.544Z,435.00
2023-06-23T03:34:44.582Z,437.00
2023-06-23T03:35:44.665Z,436.00
2023-06-23T03:36:44.627Z,433.00
2023-06-23T03:37:44.682Z,431.00
2023-06-23T03:38:44.770Z,434.00
2023-06-23T03:39:44.792Z,432.00
2023-06-23T03:40:44.854Z,431.00
2023-06-23T03:41:44.854Z,433.00
2023-06-23T03:42:44.900Z,435.00
2023-06-23T03:43:44.931Z,436.00
2023-06-23T03:44:44.955Z,436.00
2023-06-23T03:45:44.969Z,438.00
2023-06-23T03:46:45.047Z,438.00
2023-06-23T03:47:45.119Z,437.00
2023-06-23T03:48:44.978Z,437.00
2023-06-23T03:49:44.992Z,437.00
2023-06-23T03:50:44.971Z,437.00
2023-06-23T03:51:45.023Z,435.00
2023-06-23T03:52:45.036Z,438.00
2023-06-23T03:53:45.073Z,439.00
2023-06-23T03:54:45.106Z,435.00
2023-06-23T03:55:45.139Z,434.00
2023-06-23T03:56:45.142Z,433.00
2023-06-23T03:57:45.166Z,432.00
2023-06-23T03:58:45.173Z,433.00
2023-06-23T03:59:45.191Z,432.00
2023-06-23T04:00:45.200Z,430.00
2023-06-23T04:01:45.266Z,433.00
2023-06-23T04:02:45.286Z,433.00
2023-06-23T04:03:45.275Z,435.00
2023-06-23T04:04:45.216Z,437.00
2023-06-23T04:05:45.202Z,435.00
2023-06-23T04:06:45.215Z,435.00
2023-06-23T04:07:45.251Z,432.00
2023-06-23T04:08:45.324Z,434.00
2023-06-23T04:09:45.359Z,427.00
2023-06-23T04:10:45.416Z,428.00
2023-06-23T04:11:45.413Z,430.00
2023-06-23T04:12:45.431Z,430.00
2023-06-23T04:13:45.431Z,431.00
2023-06-23T04:14:45.446Z,430.00
2023-06-23T04:15:45.449Z,431.00
2023-06-23T04:16:45.420Z,431.00
2023-06-23T04:17:45.481Z,438.00
2023-06-23T04:18:45.439Z,434.00
2023-06-23T04:19:45.450Z,439.00
2023-06-23T04:20:45.425Z,436.00
2023-06-23T04:21:45.442Z,435.00
2023-06-23T04:22:45.492Z,431.00
2023-06-23T04:23:45.427Z,430.00
2023-06-23T04:24:45.443Z,431.00
2023-06-23T04:25:45.405Z,432.00
2023-06-23T04:26:45.457Z,433.00
2023-06-23T04:27:45.419Z,432.00
2023-06-23T04:28:45.436Z,430.00
2023-06-23T04:29:45.420Z,431.00
2023-06-23T04:30:45.449Z,428.00
2023-06-23T04:31:45.431Z,425.00
2023-06-23T04:32:45.587Z,424.00
2023-06-23T04:33:45.396Z,425.00
2023-06-23T04:34:45.410Z,426.00
2023-06-23T04:35:45.401Z,431.00
2023-06-23T04:36:45.405Z,433.00
2023-06-23T04:37:45.431Z,434.00
2023-06-23T04:38:45.410Z,428.00
2023-06-23T04:39:45.399Z,428.00
2023-06-23T04:40:45.380Z,427.00
2023-06-23T04:41:45.404Z,427.00
2023-06-23T04:42:45.411Z,427.00
2023-06-23T04:43:45.439Z,431.00
2023-06-23T04:44:45.395Z,433.00
2023-06-23T04:45:45.459Z,431.00
2023-06-23T04:46:45.461Z,429.00
2023-06-23T04:47:45.468Z,427.00
2023-06-23T04:48:45.476Z,425.00
2023-06-23T04:49:45.520Z,428.00
2023-06-23T04:50:45.506Z,429.00
2023-06-23T04:51:45.532Z,430.00
2023-06-23T04:52:45.516Z,432.00
2023-06-23T04:53:45.506Z,432.00
2023-06-23T04:54:45.529Z,428.00
2023-06-23T04:55:45.531Z,430.00
2023-06-23T04:56:45.536Z,430.00
2023-06-23T04:57:45.514Z,430.00
2023-06-23T04:58:45.562Z,435.00
2023-06-23T04:59:45.552Z,431.00
2023-06-23T05:00:45.515Z,430.00
2023-06-23T05:01:45.723Z,432.00
2023-06-23T05:02:45.599Z,431.00
2023-06-23T05:03:45.619Z,430.00
2023-06-23T05:04:45.597Z,427.00
2023-06-23T05:05:45.564Z,427.00
2023-06-23T05:06:45.583Z,428.00
2023-06-23T05:07:45.584Z,430.00
2023-06-23T05:08:45.596Z,432.00
2023-06-23T05:09:45.581Z,439.00
2023-06-23T05:10:45.607Z,432.00
2023-06-23T05:11:45.641Z,431.00
2023-06-23T05:12:45.673Z,431.00
2023-06-23T05:13:45.690Z,432.00
2023-06-23T05:14:45.699Z,434.00
2023-06-23T05:15:45.721Z,432.00
2023-06-23T05:16:45.759Z,431.00
2023-06-23T05:17:45.795Z,434.00
2023-06-23T05:18:45.777Z,435.00
2023-06-23T05:19:45.798Z,434.00
2023-06-23T05:20:45.811Z,434.00
2023-06-23T05:21:45.822Z,435.00
2023-06-23T05:22:45.843Z,433.00
2023-06-23T05:23:52.864Z,431.00
2023-06-23T05:24:46.855Z,431.00
2023-06-23T05:25:45.845Z,431.00
2023-06-23T05:26:45.854Z,437.00
2023-06-23T05:27:45.835Z,436.00
2023-06-23T05:28:45.834Z,435.00
2023-06-23T05:29:45.788Z,434.00
2023-06-23T05:30:45.842Z,432.00
2023-06-23T05:31:45.851Z,432.00
2023-06-23T05:32:45.933Z,433.00
2023-06-23T05:33:45.774Z,431.00
2023-06-23T05:34:45.763Z,431.00
2023-06-23T05:35:47.998Z,433.00
2023-06-23T05:36:45.772Z,431.00
2023-06-23T05:37:45.737Z,434.00
2023-06-23T05:38:45.753Z,437.00
2023-06-23T05:39:45.746Z,443.00
2023-06-23T05:40:45.733Z,446.00
2023-06-23T05:41:45.747Z,452.00
2023-06-23T05:42:45.722Z,456.00
2023-06-23T05:43:45.708Z,482.00
2023-06-23T05:44:45.695Z,487.00
2023-06-23T05:45:45.905Z,489.00
2023-06-23T05:46:45.774Z,502.00
2023-06-23T05:47:45.707Z,507.00
2023-06-23T05:48:45.704Z,619.00
2023-06-23T05:49:48.133Z,570.00
2023-06-23T05:50:45.799Z,573.00
2023-06-23T05:51:45.817Z,581.00
2023-06-23T05:52:45.786Z,591.00
2023-06-23T05:53:45.783Z,607.00
2023-06-23T05:54:45.774Z,628.00
2023-06-23T05:55:45.795Z,667.00
2023-06-23T05:56:45.840Z,657.00
2023-06-23T05:57:45.828Z,665.00
2023-06-23T05:58:45.830Z,678.00
2023-06-23T05:59:45.832Z,678.00
2023-06-23T06:00:45.877Z,681.00
2023-06-23T06:01:45.830Z,680.00
2023-06-23T06:02:45.892Z,690.00
2023-06-23T06:03:45.985Z,699.00
2023-06-23T06:04:45.870Z,696.00
2023-06-23T06:05:45.826Z,697.00
2023-06-23T06:06:45.827Z,717.00
2023-06-23T06:07:45.856Z,713.00
2023-06-23T06:08:45.855Z,715.00
2023-06-23T06:09:45.854Z,715.00
2023-06-23T06:10:45.832Z,716.00
2023-06-23T06:11:45.802Z,722.00
2023-06-23T06:12:46.836Z,762.00
2023-06-23T06:13:45.837Z,734.00
2023-06-23T06:14:45.858Z,733.00
2023-06-23T06:15:45.818Z,755.00
2023-06-23T06:16:45.836Z,753.00
2023-06-23T06:17:45.874Z,748.00
2023-06-23T06:18:45.836Z,750.00
2023-06-23T06:19:45.877Z,746.00
2023-06-23T06:20:45.845Z,739.00
2023-06-23T06:21:45.842Z,740.00
2023-06-23T06:22:45.883Z,740.00
2023-06-23T06:23:45.924Z,739.00
2023-06-23T06:24:46.373Z,742.00
2023-06-23T06:25:46.056Z,742.00
2023-06-23T06:26:46.090Z,747.00
2023-06-23T06:27:46.105Z,745.00
2023-06-23T06:28:46.162Z,757.00
2023-06-23T06:29:46.230Z,762.00
2023-06-23T06:30:46.258Z,760.00
2023-06-23T06:31:46.305Z,754.00
2023-06-23T06:32:46.345Z,777.00
2023-06-23T06:33:46.390Z,774.00
2023-06-23T06:34:46.440Z,779.00
2023-06-23T06:35:46.485Z,775.00
2023-06-23T06:36:46.549Z,768.00
2023-06-23T06:37:46.575Z,751.00
2023-06-23T06:38:46.638Z,750.00
2023-06-23T06:39:46.669Z,743.00
2023-06-23T06:40:46.712Z,746.00
2023-06-23T06:41:46.746Z,752.00
2023-06-23T06:42:46.770Z,752.00
2023-06-23T06:43:46.815Z,748.00
2023-06-23T06:44:46.857Z,745.00
2023-06-23T06:45:46.893Z,745.00
2023-06-23T06:46:47.019Z,775.00
2023-06-23T06:47:47.052Z,765.00
2023-06-23T06:48:47.097Z,795.00
2023-06-23T06:49:47.196Z,784.00
2023-06-23T06:50:47.216Z,771.00
2023-06-23T06:51:47.248Z,760.00
2023-06-23T06:52:47.267Z,754.00
2023-06-23T06:53:47.281Z,771.00
2023-06-23T06:54:47.283Z,757.00
2023-06-23T06:55:47.251Z,803.00
2023-06-23T06:56:47.288Z,822.00
2023-06-23T06:57:47.346Z,827.00
2023-06-23T06:58:47.380Z,866.00
2023-06-23T06:59:47.431Z,868.00
2023-06-23T07:00:47.536Z,833.00
2023-06-23T07:01:47.707Z,830.00
2023-06-23T07:02:47.647Z,848.00
2023-06-23T07:03:47.738Z,890.00
2023-06-23T07:04:47.734Z,851.00
2023-06-23T07:05:47.773Z,805.00
2023-06-23T07:06:47.797Z,958.00
2023-06-23T07:07:47.902Z,921.00
2023-06-23T07:08:47.897Z,951.00
2023-06-23T07:09:47.962Z,896.00
2023-06-23T07:10:48.007Z,881.00
2023-06-23T07:11:48.047Z,874.00
2023-06-23T07:12:48.083Z,882.00
2023-06-23T07:13:48.140Z,919.00
2023-06-23T07:14:48.188Z,910.00
2023-06-23T07:15:48.278Z,905.00
2023-06-23T07:16:48.280Z,904.00
2023-06-23T07:17:48.369Z,907.00
2023-06-23T07:18:48.387Z,903.00
2023-06-23T07:19:48.429Z,911.00
2023-06-23T07:20:48.509Z,912.00
2023-06-23T07:21:48.514Z,912.00
2023-06-23T07:22:48.591Z,914.00
2023-06-23T07:23:48.627Z,901.00
2023-06-23T07:24:48.691Z,913.00
2023-06-23T07:25:48.761Z,922.00
2023-06-23T07:26:48.781Z,932.00
2023-06-23T07:27:48.865Z,934.00
2023-06-23T07:28:48.914Z,938.00
2023-06-23T07:29:48.957Z,958.00
2023-06-23T07:30:49.199Z,945.00
2023-06-23T07:31:49.151Z,964.00
2023-06-23T07:32:49.195Z,945.00
2023-06-23T07:33:49.486Z,949.00
2023-06-23T07:34:49.242Z,943.00
2023-06-23T07:35:49.317Z,957.00
2023-06-23T07:36:49.344Z,993.00
2023-06-23T07:37:49.426Z,962.00
2023-06-23T07:38:49.455Z,954.00
2023-06-23T07:39:49.492Z,950.00
2023-06-23T07:40:49.463Z,944.00
2023-06-23T07:41:50.262Z,1022.00
2023-06-23T07:42:49.713Z,1008.00
2023-06-23T07:43:49.607Z,994.00
2023-06-23T07:44:49.678Z,930.00
2023-06-23T07:45:49.839Z,852.00
2023-06-23T07:46:49.818Z,817.00
2023-06-23T07:47:49.864Z,818.00
2023-06-23T07:48:49.876Z,825.00
2023-06-23T07:49:49.998Z,825.00
2023-06-23T07:50:50.004Z,832.00
2023-06-23T07:51:50.045Z,855.00
2023-06-23T07:52:50.121Z,847.00
2023-06-23T07:54:05.329Z,840.00
2023-06-23T07:54:51.194Z,821.00
2023-06-23T07:55:50.171Z,803.00
2023-06-23T07:56:50.160Z,794.00
2023-06-23T07:57:50.141Z,780.00
2023-06-23T07:58:50.139Z,754.00
2023-06-23T07:59:50.132Z,745.00
2023-06-23T08:00:50.125Z,738.00
2023-06-23T08:01:50.105Z,729.00
2023-06-23T08:02:50.290Z,718.00
2023-06-23T08:03:50.199Z,710.00
2023-06-23T08:04:50.228Z,715.00
2023-06-23T08:05:50.371Z,701.00
2023-06-23T08:06:50.313Z,693.00
2023-06-23T08:07:50.390Z,689.00
2023-06-23T08:08:50.422Z,680.00
2023-06-23T08:09:50.465Z,676.00
2023-06-23T08:10:50.491Z,671.00
2023-06-23T08:11:50.499Z,669.00
2023-06-23T08:12:50.568Z,667.00
2023-06-23T08:13:50.611Z,665.00
2023-06-23T08:14:50.700Z,658.00
2023-06-23T08:15:50.764Z,653.00
2023-06-23T08:16:50.862Z,652.00
2023-06-23T08:17:51.715Z,654.00
2023-06-23T08:18:50.853Z,643.00
2023-06-23T08:19:50.920Z,642.00
2023-06-23T08:20:50.922Z,637.00
2023-06-23T08:21:51.019Z,634.00
2023-06-23T08:22:50.920Z,623.00
2023-06-23T08:23:50.950Z,624.00
2023-06-23T08:24:51.166Z,620.00
2023-06-23T08:25:50.990Z,623.00
2023-06-23T08:26:51.020Z,621.00
2023-06-23T08:27:51.097Z,619.00
2023-06-23T08:28:51.146Z,618.00
2023-06-23T08:29:51.237Z,622.00
2023-06-23T08:30:51.386Z,620.00
2023-06-23T08:31:51.447Z,628.00
2023-06-23T08:32:51.437Z,630.00
2023-06-23T08:33:51.464Z,628.00
2023-06-23T08:34:51.558Z,627.00
2023-06-23T08:35:51.674Z,638.00
2023-06-23T08:36:51.622Z,636.00
2023-06-23T08:37:51.690Z,637.00
2023-06-23T08:38:51.766Z,621.00
2023-06-23T08:39:51.849Z,599.00
2023-06-23T08:40:51.853Z,600.00
2023-06-23T08:41:51.888Z,591.00
2023-06-23T08:42:51.899Z,579.00
2023-06-23T08:43:51.880Z,560.00
2023-06-23T08:44:51.930Z,550.00
2023-06-23T08:45:51.901Z,549.00
2023-06-23T08:47:04.759Z,542.00
2023-06-23T08:47:53.044Z,537.00
2023-06-23T08:48:51.936Z,531.00
2023-06-23T08:49:51.892Z,528.00
2023-06-23T08:51:46.257Z,508.00
2023-06-23T08:52:46.265Z,505.00
2023-06-23T08:53:46.272Z,505.00
2023-06-23T08:54:46.233Z,501.00
2023-06-23T08:55:46.255Z,501.00
2023-06-23T08:56:46.213Z,499.00
2023-06-23T08:57:46.226Z,496.00
2023-06-23T08:58:46.266Z,492.00
2023-06-23T08:59:46.228Z,486.00
2023-06-23T09:00:46.229Z,482.00
2023-06-23T09:01:46.256Z,478.00
2023-06-23T09:02:46.301Z,475.00
2023-06-23T09:03:46.191Z,471.00
2023-06-23T09:04:46.171Z,471.00
2023-06-23T09:05:46.170Z,468.00
2023-06-23T09:06:46.138Z,468.00
2023-06-23T09:07:46.151Z,465.00
2023-06-23T09:08:46.217Z,464.00
2023-06-23T09:09:46.232Z,461.00
2023-06-23T09:10:46.223Z,462.00
2023-06-23T09:11:46.198Z,460.00
2023-06-23T09:12:46.188Z,459.00
2023-06-23T09:13:46.190Z,457.00
2023-06-23T09:14:46.191Z,456.00
2023-06-23T09:16:00.840Z,456.00
2023-06-23T09:16:47.206Z,453.00
2023-06-23T09:17:46.236Z,455.00
2023-06-23T09:18:46.180Z,452.00
2023-06-23T09:19:46.159Z,450.00
2023-06-23T09:20:47.113Z,448.00
2023-06-23T09:21:46.198Z,449.00
2023-06-23T09:22:46.115Z,451.00
2023-06-23T09:23:46.125Z,451.00
2023-06-23T09:24:46.121Z,445.00
2023-06-23T09:25:46.117Z,442.00
2023-06-23T09:26:46.120Z,442.00
2023-06-23T09:27:46.139Z,442.00
2023-06-23T09:28:46.155Z,442.00
2023-06-23T09:29:46.155Z,443.00
2023-06-23T09:30:46.159Z,443.00
2023-06-23T09:31:46.148Z,439.00
2023-06-23T09:32:46.217Z,442.00
2023-06-23T09:33:46.185Z,449.00
2023-06-23T09:34:46.201Z,452.00
2023-06-23T09:35:46.218Z,463.00
2023-06-23T09:36:46.218Z,469.00
2023-06-23T09:37:46.217Z,474.00
2023-06-23T09:38:46.246Z,484.00
2023-06-23T09:39:46.259Z,494.00
2023-06-23T09:40:46.272Z,492.00
2023-06-23T09:41:52.538Z,492.00
2023-06-23T09:42:47.297Z,553.00
2023-06-23T09:43:46.290Z,557.00
2023-06-23T09:44:46.292Z,571.00
2023-06-23T09:45:46.243Z,678.00
2023-06-23T09:46:46.251Z,631.00
2023-06-23T09:47:46.290Z,624.00
2023-06-23T09:48:46.256Z,654.00
2023-06-23T09:49:46.238Z,654.00
2023-06-23T09:50:46.242Z,670.00
2023-06-23T09:51:46.230Z,667.00
2023-06-23T09:52:46.237Z,682.00
2023-06-23T09:53:46.206Z,690.00
2023-06-23T09:54:46.239Z,705.00
2023-06-23T09:55:46.199Z,704.00
2023-06-23T09:56:46.177Z,719.00
2023-06-23T09:57:46.389Z,720.00
2023-06-23T09:58:46.211Z,732.00
2023-06-23T09:59:46.221Z,738.00
2023-06-23T10:00:46.187Z,739.00
2023-06-23T10:01:46.165Z,740.00
2023-06-23T10:02:47.029Z,740.00
2023-06-23T10:03:46.408Z,749.00
2023-06-23T10:04:46.294Z,750.00
2023-06-23T10:05:46.341Z,746.00
2023-06-23T10:06:46.397Z,748.00
2023-06-23T10:07:46.467Z,780.00
2023-06-23T10:08:46.565Z,771.00
2023-06-23T10:09:46.585Z,817.00
2023-06-23T10:10:46.660Z,800.00
2023-06-23T10:11:46.697Z,790.00
2023-06-23T10:12:46.757Z,798.00
2023-06-23T10:13:46.982Z,800.00
2023-06-23T10:14:46.904Z,794.00
2023-06-23T10:15:46.911Z,788.00
2023-06-23T10:16:46.931Z,790.00
2023-06-23T10:17:46.994Z,796.00
2023-06-23T10:18:47.094Z,800.00
2023-06-23T10:19:47.091Z,800.00
2023-06-23T10:20:47.133Z,835.00
2023-06-23T10:21:47.165Z,835.00
2023-06-23T10:22:47.240Z,820.00
2023-06-23T10:23:47.211Z,821.00
2023-06-23T10:24:47.266Z,817.00
2023-06-23T10:25:47.290Z,815.00
2023-06-23T10:26:47.292Z,818.00
2023-06-23T10:27:47.330Z,825.00
2023-06-23T10:28:47.314Z,837.00
2023-06-23T10:29:47.366Z,851.00
2023-06-23T10:30:47.359Z,845.00
2023-06-23T10:31:47.415Z,847.00
2023-06-23T10:32:47.448Z,858.00
2023-06-23T10:33:47.402Z,883.00
2023-06-23T10:34:47.458Z,891.00
2023-06-23T10:35:47.492Z,884.00
2023-06-23T10:36:47.492Z,874.00
2023-06-23T10:37:47.582Z,870.00
2023-06-23T10:38:47.609Z,868.00
2023-06-23T10:39:47.631Z,797.00
2023-06-23T10:40:47.722Z,810.00
2023-06-23T10:41:47.713Z,897.00
2023-06-23T10:42:47.783Z,864.00
2023-06-23T10:43:47.774Z,896.00
2023-06-23T10:44:47.830Z,882.00
2023-06-23T10:45:47.826Z,879.00
2023-06-23T10:46:47.888Z,893.00
2023-06-23T10:47:48.026Z,925.00
2023-06-23T10:48:47.985Z,935.00
2023-06-23T10:49:48.060Z,952.00
2023-06-23T10:50:48.068Z,947.00
2023-06-23T10:51:48.139Z,957.00
2023-06-23T10:52:48.160Z,981.00
2023-06-23T10:53:48.220Z,985.00
2023-06-23T10:54:48.323Z,1001.00
2023-06-23T10:56:07.730Z,1008.00
2023-06-23T10:56:49.371Z,1007.00
2023-06-23T10:57:48.324Z,1009.00
2023-06-23T10:58:48.329Z,1015.00
2023-06-23T10:59:48.339Z,1017.00
2023-06-23T11:00:48.362Z,1013.00
2023-06-23T11:01:48.329Z,1018.00
2023-06-23T11:02:48.319Z,1021.00
2023-06-23T11:03:48.267Z,1027.00
2023-06-23T11:04:48.333Z,1030.00
2023-06-23T11:05:48.308Z,1028.00
2023-06-23T11:06:48.390Z,1035.00
2023-06-23T11:07:48.355Z,1035.00
2023-06-23T11:08:48.401Z,1042.00
2023-06-23T11:09:48.490Z,1039.00
2023-06-23T11:10:48.512Z,1037.00
2023-06-23T11:11:48.491Z,1042.00
2023-06-23T11:12:48.522Z,1046.00
2023-06-23T11:13:48.578Z,1049.00
2023-06-23T11:14:48.664Z,1050.00
2023-06-23T11:15:48.622Z,1060.00
2023-06-23T11:16:48.680Z,1062.00
2023-06-23T11:17:48.884Z,1072.00
2023-06-23T11:18:48.819Z,1078.00
2023-06-23T11:19:48.863Z,1077.00
2023-06-23T11:20:48.940Z,1074.00
2023-06-23T11:21:48.974Z,1074.00
2023-06-23T11:22:48.993Z,1072.00
2023-06-23T11:23:49.074Z,1073.00
2023-06-23T11:24:49.130Z,1080.00
2023-06-23T11:25:49.163Z,1081.00
2023-06-23T11:26:49.175Z,1087.00
2023-06-23T11:27:49.212Z,1091.00
2023-06-23T11:28:49.277Z,1095.00
2023-06-23T11:29:49.299Z,1109.00
2023-06-23T11:30:49.378Z,1100.00
2023-06-23T11:31:49.366Z,1115.00
2023-06-23T11:32:49.419Z,1082.00
2023-06-23T11:33:49.459Z,986.00
2023-06-23T11:34:49.485Z,979.00
2023-06-23T11:35:49.489Z,983.00
2023-06-23T11:36:49.526Z,983.00
2023-06-23T11:37:49.540Z,969.00
2023-06-23T11:38:49.570Z,947.00
2023-06-23T11:39:49.574Z,924.00
2023-06-23T11:40:49.568Z,912.00
2023-06-23T11:41:49.599Z,907.00
2023-06-23T11:42:49.618Z,893.00
2023-06-23T11:43:49.686Z,876.00
2023-06-23T11:44:49.762Z,854.00
2023-06-23T11:45:49.741Z,846.00
2023-06-23T11:46:49.775Z,835.00
2023-06-23T11:47:49.954Z,797.00
2023-06-23T11:48:49.904Z,824.00
2023-06-23T11:49:49.979Z,784.00
2023-06-23T11:50:50.026Z,773.00
2023-06-23T11:51:50.088Z,761.00
2023-06-23T11:52:50.166Z,751.00
2023-06-23T11:53:50.232Z,745.00
2023-06-23T11:54:50.293Z,727.00
2023-06-23T11:55:50.363Z,729.00
2023-06-23T11:56:50.407Z,718.00
2023-06-23T11:57:50.472Z,708.00
2023-06-23T11:58:50.524Z,700.00
2023-06-23T11:59:50.594Z,696.00
2023-06-23T12:00:50.641Z,689.00
2023-06-23T12:01:50.716Z,676.00
2023-06-23T12:02:50.913Z,666.00
2023-06-23T12:03:51.153Z,658.00
2023-06-23T12:04:50.974Z,650.00
2023-06-23T12:05:50.812Z,637.00
2023-06-23T12:06:50.797Z,630.00
2023-06-23T12:07:50.818Z,639.00
2023-06-23T12:08:50.909Z,633.00
2023-06-23T12:09:52.535Z,628.00
2023-06-23T12:10:50.789Z,620.00
2023-06-23T12:11:50.821Z,623.00
2023-06-23T12:12:50.858Z,611.00
2023-06-23T12:13:50.841Z,606.00
2023-06-23T12:14:50.828Z,602.00
2023-06-23T12:15:54.221Z,591.00
2023-06-23T12:16:51.813Z,599.00
2023-06-23T12:17:50.829Z,590.00
2023-06-23T12:18:50.761Z,578.00
2023-06-23T12:19:52.759Z,578.00
2023-06-23T12:20:50.764Z,571.00
2023-06-23T12:21:50.764Z,563.00
2023-06-23T12:22:50.763Z,562.00
2023-06-23T12:23:50.771Z,556.00
2023-06-23T12:24:50.723Z,570.00
2023-06-23T12:25:50.738Z,556.00
2023-06-23T12:26:50.737Z,558.00
2023-06-23T12:27:50.722Z,555.00
2023-06-23T12:28:50.722Z,543.00